Check out our new PWSWeather beta!
PWSweather.com
Personal Weather Stations
Station Observations

EsineIT

Lat: 45.92528, Lon: 10.24722

Elevation: 886

Station Type: Davis VantagePro2 wireless

https://meteoesine.it

Latest ConditionsUpdated 6:16:55 PM GMT+01:01 Monday, Feb 24, 2020
Currently Today's Max Today's Min Today's Average
Temperature 54.1°F12.3°C 63.3°F17.4°C 39.7°F4.3°C 49.9°F9.9°C
Dew Point 45.3°F7.4°C 48.6°F9.2°C 33.8°F1.0°C 40.1°F4.5°C
Winds 2.9 mph SW4.7 kmh SW 12.1 mph -19.5 kmh - - 3.5 mph 5.6 kmh
Wind Gusts 8.0 mph12.9 kmh 20.0 mph32.2 kmh - -
Humidity 72% 80% 51% 70%
Pressure 30.04 in1017.3 mb 30.14 in1020.7 mb 30.01 in1016.3 mb -
Hour Temp Dew Point Humidity Winds Wind Gusts Pressure Precip Precip Rate Daily Precip Total
06:16 PM 54.1°F12.3°C 45.3°F7.4°C 72% 2.9 mph SW4.7 kmh SW 8.0 mph12.9 kmh 30.04 in1017.3 mb 0.00 in0.0 mm 0.00 in0.0 mm 0.00 in0.0 mm
06:05 PM 54.5°F12.5°C 45.7°F7.6°C 72% 4.0 mph SW6.4 kmh SW 9.0 mph14.5 kmh 30.03 in1016.9 mb 0.00 in0.0 mm 0.00 in0.0 mm 0.00 in0.0 mm
05:55 PM 54.7°F12.6°C 45.9°F7.7°C 72% 2.9 mph SSW4.7 kmh SSW 7.0 mph11.3 kmh 30.03 in1016.9 mb 0.00 in0.0 mm 0.00 in0.0 mm 0.00 in0.0 mm
05:44 PM 55.0°F12.8°C 45.9°F7.7°C 71% 4.0 mph SW6.4 kmh SW 10.0 mph16.1 kmh 30.03 in1016.9 mb 0.00 in0.0 mm 0.00 in0.0 mm 0.00 in0.0 mm
05:33 PM 55.8°F13.2°C 46.6°F8.1°C 71% 6.9 mph SSW11.1 kmh SSW 11.0 mph17.7 kmh 30.02 in1016.6 mb 0.00 in0.0 mm 0.00 in0.0 mm 0.00 in0.0 mm
05:23 PM 56.5°F13.6°C 46.4°F8.0°C 69% 8.1 mph SW13.0 kmh SW 16.0 mph25.7 kmh 30.02 in1016.6 mb 0.00 in0.0 mm 0.00 in0.0 mm 0.00 in0.0 mm
05:13 PM 56.8°F13.8°C 46.8°F8.2°C 69% 8.9 mph SW14.3 kmh SW 14.1 mph22.7 kmh 30.02 in1016.6 mb 0.00 in0.0 mm 0.00 in0.0 mm 0.00 in0.0 mm
05:02 PM 57.6°F14.2°C 47.1°F8.4°C 68% 6.9 mph SSW11.1 kmh SSW 11.0 mph17.7 kmh 30.02 in1016.6 mb 0.00 in0.0 mm 0.00 in0.0 mm 0.00 in0.0 mm
04:50 PM 58.1°F14.5°C 47.1°F8.4°C 67% 8.1 mph S13.0 kmh S 15.0 mph24.1 kmh 30.01 in1016.3 mb 0.00 in0.0 mm 0.00 in0.0 mm 0.00 in0.0 mm
04:40 PM 58.6°F14.8°C 47.7°F8.7°C 67% 8.1 mph S13.0 kmh S 14.0 mph22.5 kmh 30.01 in1016.3 mb 0.00 in0.0 mm 0.00 in0.0 mm 0.00 in0.0 mm
04:29 PM 58.8°F14.9°C 47.8°F8.8°C 67% 8.1 mph SW13.0 kmh SW 14.0 mph22.5 kmh 30.01 in1016.3 mb 0.00 in0.0 mm 0.00 in0.0 mm 0.00 in0.0 mm
04:18 PM 59.7°F15.4°C 48.0°F8.9°C 65% 6.0 mph SSW9.7 kmh SSW 14.0 mph22.5 kmh 30.02 in1016.6 mb 0.00 in0.0 mm 0.00 in0.0 mm 0.00 in0.0 mm
04:08 PM 60.4°F15.8°C 48.2°F9.0°C 64% 4.9 mph SW7.9 kmh SW 10.0 mph16.1 kmh 30.02 in1016.6 mb 0.00 in0.0 mm 0.00 in0.0 mm 0.00 in0.0 mm
03:57 PM 60.6°F15.9°C 48.4°F9.1°C 64% 4.9 mph WSW7.9 kmh WSW 11.0 mph17.7 kmh 30.01 in1016.3 mb 0.00 in0.0 mm 0.00 in0.0 mm 0.00 in0.0 mm
03:47 PM 60.6°F15.9°C 48.4°F9.1°C 64% 4.9 mph SW7.9 kmh SW 14.0 mph22.5 kmh 30.02 in1016.6 mb 0.00 in0.0 mm 0.00 in0.0 mm 0.00 in0.0 mm
03:35 PM 60.6°F15.9°C 48.4°F9.1°C 64% 6.9 mph W11.1 kmh W 17.0 mph27.4 kmh 30.02 in1016.6 mb 0.00 in0.0 mm 0.00 in0.0 mm 0.00 in0.0 mm
03:25 PM 60.4°F15.8°C 48.2°F9.0°C 64% 8.1 mph SW13.0 kmh SW 16.0 mph25.7 kmh 30.02 in1016.6 mb 0.00 in0.0 mm 0.00 in0.0 mm 0.00 in0.0 mm
03:14 PM 60.8°F16.0°C 48.6°F9.2°C 64% 8.1 mph SW13.0 kmh SW 14.0 mph22.5 kmh 30.03 in1016.9 mb 0.00 in0.0 mm 0.00 in0.0 mm 0.00 in0.0 mm
03:03 PM 60.6°F15.9°C 48.0°F8.9°C 63% 8.1 mph SW13.0 kmh SW 14.1 mph22.7 kmh 30.03 in1016.9 mb 0.00 in0.0 mm 0.00 in0.0 mm 0.00 in0.0 mm
02:53 PM 60.8°F16.0°C 48.2°F9.0°C 63% 8.9 mph S14.3 kmh S 17.0 mph27.4 kmh 30.03 in1016.9 mb 0.00 in0.0 mm 0.00 in0.0 mm 0.00 in0.0 mm
02:43 PM 60.8°F16.0°C 48.6°F9.2°C 64% 8.9 mph SSW14.3 kmh SSW 16.0 mph25.7 kmh 30.03 in1016.9 mb 0.00 in0.0 mm 0.00 in0.0 mm 0.00 in0.0 mm
02:32 PM 61.0°F16.1°C 48.4°F9.1°C 63% 10.1 mph SW16.3 kmh SW 11.0 mph17.7 kmh 30.03 in1016.9 mb 0.00 in0.0 mm 0.00 in0.0 mm 0.00 in0.0 mm
02:21 PM 61.7°F16.5°C 48.2°F9.0°C 61% 10.1 mph SSW16.3 kmh SSW 17.0 mph27.4 kmh 30.04 in1017.3 mb 0.00 in0.0 mm 0.00 in0.0 mm 0.00 in0.0 mm
02:11 PM 61.5°F16.4°C 48.4°F9.1°C 62% 12.1 mph SSW19.5 kmh SSW 19.0 mph30.6 kmh 30.04 in1017.3 mb 0.00 in0.0 mm 0.00 in0.0 mm 0.00 in0.0 mm
02:00 PM 61.9°F16.6°C 47.8°F8.8°C 60% 10.1 mph SW16.3 kmh SW 20.0 mph32.2 kmh 30.04 in1017.3 mb 0.00 in0.0 mm 0.00 in0.0 mm 0.00 in0.0 mm
01:49 PM 62.1°F16.7°C 48.4°F9.1°C 61% 8.1 mph SSW13.0 kmh SSW 16.0 mph25.7 kmh 30.04 in1017.3 mb 0.00 in0.0 mm 0.00 in0.0 mm 0.00 in0.0 mm
01:39 PM 63.3°F17.4°C 47.3°F8.5°C 56% 6.0 mph WSW9.7 kmh WSW 14.1 mph22.7 kmh 30.04 in1017.3 mb 0.00 in0.0 mm 0.00 in0.0 mm 0.00 in0.0 mm
01:28 PM 63.1°F17.3°C 46.2°F7.9°C 54% 6.0 mph SW9.7 kmh SW 8.9 mph14.3 kmh 30.04 in1017.3 mb 0.00 in0.0 mm 0.00 in0.0 mm 0.00 in0.0 mm
01:17 PM 63.1°F17.3°C 45.7°F7.6°C 53% 6.0 mph S9.7 kmh S 10.0 mph16.1 kmh 30.04 in1017.3 mb 0.00 in0.0 mm 0.00 in0.0 mm 0.00 in0.0 mm
01:06 PM 63.0°F17.2°C 46.6°F8.1°C 55% 6.0 mph S9.7 kmh S 10.0 mph16.1 kmh 30.05 in1017.6 mb 0.00 in0.0 mm 0.00 in0.0 mm 0.00 in0.0 mm
12:55 PM 62.8°F17.1°C 45.3°F7.4°C 53% 4.9 mph W7.9 kmh W 11.0 mph17.7 kmh 30.06 in1017.9 mb 0.00 in0.0 mm 0.00 in0.0 mm 0.00 in0.0 mm
12:45 PM 62.4°F16.9°C 45.1°F7.3°C 53% 6.0 mph SE9.7 kmh SE 13.0 mph20.9 kmh 30.06 in1017.9 mb 0.00 in0.0 mm 0.00 in0.0 mm 0.00 in0.0 mm
12:34 PM 62.1°F16.7°C 44.8°F7.1°C 53% 4.9 mph S7.9 kmh S 10.0 mph16.1 kmh 30.07 in1018.3 mb 0.00 in0.0 mm 0.00 in0.0 mm 0.00 in0.0 mm
12:24 PM 61.9°F16.6°C 44.6°F7.0°C 53% 6.0 mph SW9.7 kmh SW 12.0 mph19.3 kmh 30.08 in1018.6 mb 0.00 in0.0 mm 0.00 in0.0 mm 0.00 in0.0 mm
12:13 PM 61.0°F16.1°C 43.2°F6.2°C 52% 6.0 mph SW9.7 kmh SW 11.0 mph17.7 kmh 30.08 in1018.6 mb 0.00 in0.0 mm 0.00 in0.0 mm 0.00 in0.0 mm
12:02 PM 60.6°F15.9°C 42.4°F5.8°C 51% 4.9 mph WSW7.9 kmh WSW 10.0 mph16.1 kmh 30.09 in1019.0 mb 0.00 in0.0 mm 0.00 in0.0 mm 0.00 in0.0 mm
11:51 AM 60.4°F15.8°C 42.8°F6.0°C 52% 4.0 mph SSW6.4 kmh SSW 8.0 mph12.9 kmh 30.09 in1019.0 mb 0.00 in0.0 mm 0.00 in0.0 mm 0.00 in0.0 mm
11:40 AM 59.0°F15.0°C 40.8°F4.9°C 51% 4.0 mph SW6.4 kmh SW 9.0 mph14.5 kmh 30.09 in1019.0 mb 0.00 in0.0 mm 0.00 in0.0 mm 0.00 in0.0 mm
11:30 AM 58.5°F14.7°C 40.8°F4.9°C 52% 6.0 mph SSW9.7 kmh SSW 8.9 mph14.3 kmh 30.09 in1019.0 mb 0.00 in0.0 mm 0.00 in0.0 mm 0.00 in0.0 mm
11:19 AM 57.9°F14.4°C 42.3°F5.7°C 56% 6.0 mph SW9.7 kmh SW 10.0 mph16.1 kmh 30.09 in1019.0 mb 0.00 in0.0 mm 0.00 in0.0 mm 0.00 in0.0 mm
11:08 AM 57.4°F14.1°C 41.9°F5.5°C 56% 4.9 mph SSW7.9 kmh SSW 11.0 mph17.7 kmh 30.09 in1019.0 mb 0.00 in0.0 mm 0.00 in0.0 mm 0.00 in0.0 mm
10:58 AM 56.5°F13.6°C 41.0°F5.0°C 56% 0.9 mph WSW1.4 kmh WSW 6.0 mph9.7 kmh 30.09 in1019.0 mb 0.00 in0.0 mm 0.00 in0.0 mm 0.00 in0.0 mm
10:47 AM 55.9°F13.3°C 41.4°F5.2°C 58% 0.9 mph NE1.4 kmh NE 4.0 mph6.4 kmh 30.08 in1018.6 mb 0.00 in0.0 mm 0.00 in0.0 mm 0.00 in0.0 mm
10:36 AM 53.1°F11.7°C 41.2°F5.1°C 64% 2.0 mph NE3.2 kmh NE 4.0 mph6.4 kmh 30.09 in1019.0 mb 0.00 in0.0 mm 0.00 in0.0 mm 0.00 in0.0 mm
10:25 AM 51.4°F10.8°C 39.7°F4.3°C 64% 0.9 mph N1.4 kmh N 4.0 mph6.4 kmh 30.09 in1019.0 mb 0.00 in0.0 mm 0.00 in0.0 mm 0.00 in0.0 mm
10:15 AM 50.4°F10.2°C 39.4°F4.1°C 66% Calm Calm 2.0 mph3.2 kmh 30.09 in1019.0 mb 0.00 in0.0 mm 0.00 in0.0 mm 0.00 in0.0 mm
10:04 AM 50.2°F10.1°C 38.8°F3.8°C 65% Calm Calm 0.9 mph1.4 kmh 30.09 in1019.0 mb 0.00 in0.0 mm 0.00 in0.0 mm 0.00 in0.0 mm
09:53 AM 48.4°F9.1°C 38.7°F3.7°C 69% 2.0 mph NW3.2 kmh NW 4.0 mph6.4 kmh 30.10 in1019.3 mb 0.00 in0.0 mm 0.00 in0.0 mm 0.00 in0.0 mm
09:43 AM 47.3°F8.5°C 37.9°F3.3°C 70% 2.0 mph N3.2 kmh N 4.0 mph6.4 kmh 30.10 in1019.3 mb 0.00 in0.0 mm 0.00 in0.0 mm 0.00 in0.0 mm
09:32 AM 46.8°F8.2°C 37.9°F3.3°C 71% Calm Calm 2.0 mph3.2 kmh 30.11 in1019.6 mb 0.00 in0.0 mm 0.00 in0.0 mm 0.00 in0.0 mm
09:21 AM 44.4°F6.9°C 36.7°F2.6°C 74% Calm Calm 2.0 mph3.2 kmh 30.12 in1020.0 mb 0.00 in0.0 mm 0.00 in0.0 mm 0.00 in0.0 mm
09:11 AM 43.5°F6.4°C 36.5°F2.5°C 76% Calm Calm 4.0 mph6.4 kmh 30.11 in1019.6 mb 0.00 in0.0 mm 0.00 in0.0 mm 0.00 in0.0 mm
09:00 AM 42.6°F5.9°C 36.3°F2.4°C 78% 2.0 mph SE3.2 kmh SE 5.0 mph8.0 kmh 30.11 in1019.6 mb 0.00 in0.0 mm 0.00 in0.0 mm 0.00 in0.0 mm
08:49 AM 41.7°F5.4°C 35.4°F1.9°C 78% 2.0 mph SW3.2 kmh SW 5.0 mph8.0 kmh 30.10 in1019.3 mb 0.00 in0.0 mm 0.00 in0.0 mm 0.00 in0.0 mm
08:39 AM 41.5°F5.3°C 35.6°F2.0°C 79% 2.0 mph SW3.2 kmh SW 4.9 mph7.9 kmh 30.09 in1019.0 mb 0.00 in0.0 mm 0.00 in0.0 mm 0.00 in0.0 mm
08:28 AM 41.7°F5.4°C 35.4°F1.9°C 78% 2.0 mph WSW3.2 kmh WSW 5.0 mph8.0 kmh 30.09 in1019.0 mb 0.00 in0.0 mm 0.00 in0.0 mm 0.00 in0.0 mm
08:17 AM 43.2°F6.2°C 36.1°F2.3°C 76% 0.9 mph WNW1.4 kmh WNW 0.9 mph1.4 kmh 30.08 in1018.6 mb 0.00 in0.0 mm 0.00 in0.0 mm 0.00 in0.0 mm
08:06 AM 42.4°F5.8°C 35.8°F2.1°C 77% 2.0 mph WSW3.2 kmh WSW 5.0 mph8.0 kmh 30.08 in1018.6 mb 0.00 in0.0 mm 0.00 in0.0 mm 0.00 in0.0 mm
07:55 AM 42.6°F5.9°C 35.6°F2.0°C 76% 2.0 mph NNW3.2 kmh NNW 6.0 mph9.7 kmh 30.07 in1018.3 mb 0.00 in0.0 mm 0.00 in0.0 mm 0.00 in0.0 mm
07:45 AM 41.7°F5.4°C 35.4°F1.9°C 78% 2.9 mph NW4.7 kmh NW 5.0 mph8.0 kmh 30.07 in1018.3 mb 0.00 in0.0 mm 0.00 in0.0 mm 0.00 in0.0 mm
07:34 AM 40.6°F4.8°C 34.7°F1.5°C 79% Calm Calm 2.9 mph4.7 kmh 30.07 in1018.3 mb 0.00 in0.0 mm 0.00 in0.0 mm 0.00 in0.0 mm
07:24 AM 40.8°F4.9°C 34.5°F1.4°C 78% 0.9 mph N1.4 kmh N 0.9 mph1.4 kmh 30.07 in1018.3 mb 0.00 in0.0 mm 0.00 in0.0 mm 0.00 in0.0 mm
07:13 AM 40.3°F4.6°C 34.3°F1.3°C 79% 2.9 mph NNW4.7 kmh NNW 4.9 mph7.9 kmh 30.07 in1018.3 mb 0.00 in0.0 mm 0.00 in0.0 mm 0.00 in0.0 mm
07:02 AM 40.3°F4.6°C 34.5°F1.4°C 80% 0.9 mph NW1.4 kmh NW 4.0 mph6.4 kmh 30.07 in1018.3 mb 0.00 in0.0 mm 0.00 in0.0 mm 0.00 in0.0 mm
06:51 AM 40.5°F4.7°C 34.5°F1.4°C 79% 0.9 mph SSE1.4 kmh SSE 2.9 mph4.7 kmh 30.07 in1018.3 mb 0.00 in0.0 mm 0.00 in0.0 mm 0.00 in0.0 mm
06:40 AM 40.8°F4.9°C 34.9°F1.6°C 79% 2.0 mph NNW3.2 kmh NNW 6.0 mph9.7 kmh 30.07 in1018.3 mb 0.00 in0.0 mm 0.00 in0.0 mm 0.00 in0.0 mm
06:30 AM 40.6°F4.8°C 34.7°F1.5°C 79% 2.0 mph SE3.2 kmh SE 6.0 mph9.7 kmh 30.07 in1018.3 mb 0.00 in0.0 mm 0.00 in0.0 mm 0.00 in0.0 mm
06:19 AM 40.5°F4.7°C 34.7°F1.5°C 80% Calm Calm 2.9 mph4.7 kmh 30.07 in1018.3 mb 0.00 in0.0 mm 0.00 in0.0 mm 0.00 in0.0 mm
06:09 AM 41.0°F5.0°C 34.7°F1.5°C 78% 2.0 mph NNW3.2 kmh NNW 4.0 mph6.4 kmh 30.07 in1018.3 mb 0.00 in0.0 mm 0.00 in0.0 mm 0.00 in0.0 mm
05:58 AM 41.2°F5.1°C 34.9°F1.6°C 78% 2.0 mph N3.2 kmh N 5.0 mph8.0 kmh 30.07 in1018.3 mb 0.00 in0.0 mm 0.00 in0.0 mm 0.00 in0.0 mm
05:47 AM 41.0°F5.0°C 34.7°F1.5°C 78% 2.0 mph NW3.2 kmh NW 4.0 mph6.4 kmh 30.07 in1018.3 mb 0.00 in0.0 mm 0.00 in0.0 mm 0.00 in0.0 mm
05:36 AM 40.6°F4.8°C 34.7°F1.5°C 79% 2.0 mph ENE3.2 kmh ENE 4.0 mph6.4 kmh 30.07 in1018.3 mb 0.00 in0.0 mm 0.00 in0.0 mm 0.00 in0.0 mm
05:25 AM 39.7°F4.3°C 34.2°F1.2°C 80% 2.0 mph N3.2 kmh N 2.9 mph4.7 kmh 30.06 in1017.9 mb 0.00 in0.0 mm 0.00 in0.0 mm 0.00 in0.0 mm
05:15 AM 40.5°F4.7°C 33.8°F1.0°C 77% 0.9 mph SSW1.4 kmh SSW 5.0 mph8.0 kmh 30.06 in1017.9 mb 0.00 in0.0 mm 0.00 in0.0 mm 0.00 in0.0 mm
05:04 AM 41.5°F5.3°C 34.9°F1.6°C 77% 0.9 mph NW1.4 kmh NW 2.0 mph3.2 kmh 30.07 in1018.3 mb 0.00 in0.0 mm 0.00 in0.0 mm 0.00 in0.0 mm
04:53 AM 41.7°F5.4°C 35.1°F1.7°C 77% 0.9 mph NW1.4 kmh NW 2.0 mph3.2 kmh 30.06 in1017.9 mb 0.00 in0.0 mm 0.00 in0.0 mm 0.00 in0.0 mm
04:43 AM 42.1°F5.6°C 35.4°F1.9°C 77% 2.0 mph NW3.2 kmh NW 4.0 mph6.4 kmh 30.06 in1017.9 mb 0.00 in0.0 mm 0.00 in0.0 mm 0.00 in0.0 mm
04:32 AM 41.9°F5.5°C 35.2°F1.8°C 77% Calm Calm 3.0 mph4.8 kmh 30.06 in1017.9 mb 0.00 in0.0 mm 0.00 in0.0 mm 0.00 in0.0 mm
04:20 AM 42.1°F5.6°C 35.4°F1.9°C 77% 2.9 mph NW4.7 kmh NW 7.0 mph11.3 kmh 30.06 in1017.9 mb 0.00 in0.0 mm 0.00 in0.0 mm 0.00 in0.0 mm
04:10 AM 41.7°F5.4°C 35.1°F1.7°C 77% 2.0 mph NW3.2 kmh NW 5.0 mph8.0 kmh 30.07 in1018.3 mb 0.00 in0.0 mm 0.00 in0.0 mm 0.00 in0.0 mm
03:59 AM 42.1°F5.6°C 35.4°F1.9°C 77% 0.9 mph NW1.4 kmh NW 4.0 mph6.4 kmh 30.07 in1018.3 mb 0.00 in0.0 mm 0.00 in0.0 mm 0.00 in0.0 mm
03:48 AM 42.3°F5.7°C 35.6°F2.0°C 77% 0.9 mph NW1.4 kmh NW 4.0 mph6.4 kmh 30.08 in1018.6 mb 0.00 in0.0 mm 0.00 in0.0 mm 0.00 in0.0 mm
03:38 AM 41.9°F5.5°C 35.2°F1.8°C 77% 2.0 mph NNW3.2 kmh NNW 4.0 mph6.4 kmh 30.08 in1018.6 mb 0.00 in0.0 mm 0.00 in0.0 mm 0.00 in0.0 mm
03:28 AM 42.6°F5.9°C 35.6°F2.0°C 76% 2.0 mph E3.2 kmh E 4.0 mph6.4 kmh 30.08 in1018.6 mb 0.00 in0.0 mm 0.00 in0.0 mm 0.00 in0.0 mm
03:17 AM 41.9°F5.5°C 35.2°F1.8°C 77% 0.9 mph SSE1.4 kmh SSE 4.0 mph6.4 kmh 30.09 in1019.0 mb 0.00 in0.0 mm 0.00 in0.0 mm 0.00 in0.0 mm
03:06 AM 41.9°F5.5°C 35.6°F2.0°C 78% 0.9 mph NNE1.4 kmh NNE 2.9 mph4.7 kmh 30.09 in1019.0 mb 0.00 in0.0 mm 0.00 in0.0 mm 0.00 in0.0 mm
02:56 AM 42.1°F5.6°C 35.4°F1.9°C 77% 0.9 mph SE1.4 kmh SE 2.9 mph4.7 kmh 30.09 in1019.0 mb 0.00 in0.0 mm 0.00 in0.0 mm 0.00 in0.0 mm
02:45 AM 42.3°F5.7°C 35.6°F2.0°C 77% 0.9 mph ENE1.4 kmh ENE 2.9 mph4.7 kmh 30.10 in1019.3 mb 0.00 in0.0 mm 0.00 in0.0 mm 0.00 in0.0 mm
02:34 AM 42.4°F5.8°C 35.4°F1.9°C 76% 2.0 mph N3.2 kmh N 4.0 mph6.4 kmh 30.10 in1019.3 mb 0.00 in0.0 mm 0.00 in0.0 mm 0.00 in0.0 mm
02:24 AM 43.0°F6.1°C 36.0°F2.2°C 76% 2.9 mph NNW4.7 kmh NNW 4.0 mph6.4 kmh 30.11 in1019.6 mb 0.00 in0.0 mm 0.00 in0.0 mm 0.00 in0.0 mm
02:13 AM 42.4°F5.8°C 35.8°F2.1°C 77% 2.0 mph E3.2 kmh E 4.0 mph6.4 kmh 30.10 in1019.3 mb 0.00 in0.0 mm 0.00 in0.0 mm 0.00 in0.0 mm
02:02 AM 42.4°F5.8°C 35.8°F2.1°C 77% 2.0 mph E3.2 kmh E 4.0 mph6.4 kmh 30.11 in1019.6 mb 0.00 in0.0 mm 0.00 in0.0 mm 0.00 in0.0 mm
01:51 AM 41.7°F5.4°C 35.1°F1.7°C 77% 0.9 mph SW1.4 kmh SW 4.9 mph7.9 kmh 30.11 in1019.6 mb 0.00 in0.0 mm 0.00 in0.0 mm 0.00 in0.0 mm
01:40 AM 43.5°F6.4°C 36.1°F2.3°C 75% 2.0 mph NNE3.2 kmh NNE 4.0 mph6.4 kmh 30.10 in1019.3 mb 0.00 in0.0 mm 0.00 in0.0 mm 0.00 in0.0 mm
01:30 AM 43.3°F6.3°C 36.0°F2.2°C 75% 2.0 mph SW3.2 kmh SW 4.0 mph6.4 kmh 30.10 in1019.3 mb 0.00 in0.0 mm 0.00 in0.0 mm 0.00 in0.0 mm
01:19 AM 43.5°F6.4°C 36.1°F2.3°C 75% 2.0 mph E3.2 kmh E 4.0 mph6.4 kmh 30.11 in1019.6 mb 0.00 in0.0 mm 0.00 in0.0 mm 0.00 in0.0 mm
01:08 AM 44.2°F6.8°C 36.5°F2.5°C 74% 2.9 mph N4.7 kmh N 7.0 mph11.3 kmh 30.12 in1020.0 mb 0.00 in0.0 mm 0.00 in0.0 mm 0.00 in0.0 mm
12:58 AM 43.9°F6.6°C 36.5°F2.5°C 75% 0.9 mph SW1.4 kmh SW 3.0 mph4.8 kmh 30.12 in1020.0 mb 0.00 in0.0 mm 0.00 in0.0 mm 0.00 in0.0 mm
12:47 AM 43.0°F6.1°C 36.0°F2.2°C 76% 0.9 mph E1.4 kmh E 6.0 mph9.7 kmh 30.12 in1020.0 mb 0.00 in0.0 mm 0.00 in0.0 mm 0.00 in0.0 mm
12:35 AM 43.9°F6.6°C 36.5°F2.5°C 75% 0.9 mph NE1.4 kmh NE 4.0 mph6.4 kmh 30.12 in1020.0 mb 0.00 in0.0 mm 0.00 in0.0 mm 0.00 in0.0 mm
12:25 AM 43.5°F6.4°C 36.5°F2.5°C 76% 0.9 mph NE1.4 kmh NE 4.0 mph6.4 kmh 30.12 in1020.0 mb 0.00 in0.0 mm 0.00 in0.0 mm 0.00 in0.0 mm
12:15 AM 43.7°F6.5°C 36.3°F2.4°C 75% 2.0 mph NE3.2 kmh NE 5.0 mph8.0 kmh 30.13 in1020.3 mb 0.00 in0.0 mm 0.00 in0.0 mm 0.00 in0.0 mm
12:04 AM 43.9°F6.6°C 36.5°F2.5°C 75% 2.9 mph N4.7 kmh N 6.0 mph9.7 kmh 30.14 in1020.7 mb 0.00 in0.0 mm 0.00 in0.0 mm 0.00 in0.0 mm